Time;durP1;ratioP1;P1;durP2;ratioP2;P2;SDS_P1;SDS_P2;PMS_P1;PMS_P2;Temp;Humidity;BMP_temperature;BMP_pressure;BME280_temperature;BME280_humidity;BME280_pressure;Samples;Min_cycle;Max_cycle;Signal;HPM_P1;HPM_P2
2023/06/28 00:01:06;;;;;;;18.67;4.43;;;14.50;99.90;;;;;;4967412;28;20411;-71
2023/06/28 00:03:32;;;;;;;15.40;3.90;;;14.50;99.90;;;;;;4992552;28;20116;-70
2023/06/28 00:05:58;;;;;;;15.40;3.67;;;14.50;99.90;;;;;;4947939;28;276695;-71
2023/06/28 00:08:24;;;;;;;12.63;4.05;;;14.50;99.90;;;;;;4992106;28;22124;-73
2023/06/28 00:10:51;;;;;;;12.63;3.88;;;14.50;99.90;;;;;;4973960;28;207265;-72
2023/06/28 00:13:17;;;;;;;13.27;4.22;;;14.50;99.90;;;;;;4994132;28;20049;-72
2023/06/28 00:15:48;;;;;;;16.25;4.68;;;14.40;99.90;;;;;;4963882;28;206903;-72
2023/06/28 00:18:14;;;;;;;13.77;4.47;;;14.40;99.90;;;;;;4997918;28;20419;-71
2023/06/28 00:20:43;;;;;;;15.70;4.13;;;14.40;99.90;;;;;;4951439;28;231944;-72
2023/06/28 00:23:09;;;;;;;13.25;4.30;;;14.40;99.90;;;;;;4979836;28;20058;-72
2023/06/28 00:25:36;;;;;;;11.68;3.83;;;14.30;99.90;;;;;;4957752;28;228035;-71
2023/06/28 00:28:03;;;;;;;12.95;4.22;;;14.30;99.90;;;;;;4990138;28;20058;-72
2023/06/28 00:30:30;;;;;;;15.65;4.05;;;14.30;99.90;;;;;;4980175;28;208985;-72
2023/06/28 00:32:56;;;;;;;14.30;4.07;;;14.30;99.90;;;;;;5014240;28;20046;-70
2023/06/28 00:35:22;;;;;;;14.60;4.38;;;14.40;99.90;;;;;;4966194;28;206348;-71
2023/06/28 00:37:48;;;;;;;14.00;4.40;;;14.30;99.90;;;;;;4988417;28;20053;-71
2023/06/28 00:40:14;;;;;;;16.15;5.00;;;14.30;99.90;;;;;;4929292;28;206242;-72
2023/06/28 00:42:40;;;;;;;15.80;4.30;;;14.30;99.90;;;;;;4993602;28;20060;-72
2023/06/28 00:45:12;;;;;;;11.90;3.85;;;14.30;99.90;;;;;;4938441;28;193080;-71
2023/06/28 00:47:39;;;;;;;14.52;4.63;;;14.20;99.90;;;;;;4987495;28;20038;-71
2023/06/28 00:50:06;;;;;;;17.15;4.60;;;14.20;99.90;;;;;;4932278;28;213120;-72
2023/06/28 00:52:32;;;;;;;13.90;3.80;;;14.30;99.90;;;;;;5008433;28;20065;-74
2023/06/28 00:54:59;;;;;;;16.40;4.80;;;14.30;99.90;;;;;;4953614;28;206609;-72
2023/06/28 00:57:26;;;;;;;15.60;4.53;;;14.20;99.90;;;;;;5010381;28;20046;-72
2023/06/28 00:59:53;;;;;;;14.68;4.30;;;14.30;99.90;;;;;;4942011;28;207697;-71
2023/06/28 01:02:19;;;;;;;12.80;4.47;;;14.20;99.90;;;;;;4999211;28;20061;-71
2023/06/28 01:04:46;;;;;;;16.85;4.90;;;14.20;99.90;;;;;;4959110;28;212206;-71
2023/06/28 01:07:13;;;;;;;12.32;4.28;;;14.20;99.90;;;;;;5021934;28;20518;-73
2023/06/28 01:09:40;;;;;;;15.25;4.60;;;14.20;99.90;;;;;;4968633;28;207448;-72
2023/06/28 01:12:07;;;;;;;14.05;4.32;;;14.20;99.90;;;;;;5025909;28;20057;-72
2023/06/28 01:14:33;;;;;;;13.18;4.50;;;14.20;99.90;;;;;;4954729;28;207928;-71
2023/06/28 01:16:59;;;;;;;12.30;4.25;;;14.20;99.90;;;;;;5024036;28;20060;-71
2023/06/28 01:19:27;;;;;;;14.38;4.75;;;14.20;99.90;;;;;;4955678;28;263966;-71
2023/06/28 01:22:02;;;;;;;19.92;4.90;;;14.20;99.90;;;;;;5022493;28;20061;-71
2023/06/28 01:24:28;;;;;;;12.93;3.95;;;14.30;99.90;;;;;;4968827;28;211881;-70
2023/06/28 01:26:58;;;;;;;12.57;4.28;;;14.20;99.90;;;;;;5020305;28;20049;-72
2023/06/28 01:29:24;;;;;;;13.38;4.03;;;14.30;99.90;;;;;;4974115;28;210905;-72
2023/06/28 01:31:53;;;;;;;13.70;4.00;;;14.30;99.90;;;;;;5029159;28;20050;-73
2023/06/28 01:34:22;;;;;;;11.18;3.72;;;14.30;99.90;;;;;;4971645;28;208452;-70
2023/06/28 01:36:50;;;;;;;12.80;4.15;;;14.30;99.90;;;;;;5031424;28;20077;-71
2023/06/28 01:39:20;;;;;;;15.00;4.45;;;14.30;99.90;;;;;;4966336;28;251740;-70
2023/06/28 01:41:48;;;;;;;16.08;4.85;;;14.30;99.90;;;;;;5031093;28;20057;-72
2023/06/28 01:44:15;;;;;;;14.88;4.40;;;14.30;99.90;;;;;;4955413;28;205480;-72
2023/06/28 01:46:41;;;;;;;14.93;4.75;;;14.40;99.90;;;;;;5020561;28;20049;-72
2023/06/28 01:49:11;;;;;;;12.30;4.25;;;14.30;99.90;;;;;;4960886;28;207552;-71
2023/06/28 01:51:37;;;;;;;15.45;5.00;;;14.40;99.90;;;;;;5020878;28;20050;-73
2023/06/28 01:54:04;;;;;;;14.77;5.18;;;14.40;99.90;;;;;;4937346;28;215512;-72
2023/06/28 01:56:30;;;;;;;14.35;4.80;;;14.40;99.90;;;;;;5013103;28;20064;-70
2023/06/28 01:58:56;;;;;;;12.98;4.60;;;14.40;99.90;;;;;;4948088;28;245121;-71
2023/06/28 02:01:23;;;;;;;16.33;5.10;;;14.40;99.90;;;;;;4966172;28;20065;-71
2023/06/28 02:03:49;;;;;;;14.13;4.63;;;14.40;99.90;;;;;;4930472;28;216755;-71
2023/06/28 02:06:15;;;;;;;15.85;4.82;;;14.40;99.90;;;;;;4998991;28;20066;-71
2023/06/28 02:08:41;;;;;;;13.20;4.60;;;14.40;99.90;;;;;;4958116;28;206887;-71
2023/06/28 02:11:10;;;;;;;16.15;5.38;;;14.40;99.90;;;;;;4918669;28;249552;-72
2023/06/28 02:13:36;;;;;;;16.40;5.20;;;14.40;99.90;;;;;;4989890;28;20435;-71
2023/06/28 02:16:02;;;;;;;13.05;4.72;;;14.40;99.90;;;;;;4952388;28;222915;-72
2023/06/28 02:18:31;;;;;;;16.33;4.75;;;14.40;99.90;;;;;;4988002;28;20050;-71
2023/06/28 02:20:57;;;;;;;10.20;4.38;;;14.40;99.90;;;;;;4953761;28;204890;-71
2023/06/28 02:23:23;;;;;;;14.18;4.70;;;14.40;99.90;;;;;;5008167;28;20054;-72
2023/06/28 02:25:49;;;;;;;14.90;4.97;;;14.40;99.90;;;;;;4963349;28;213077;-72
2023/06/28 02:28:15;;;;;;;11.40;5.03;;;14.50;99.90;;;;;;4987949;28;20422;-71
2023/06/28 02:30:42;;;;;;;13.77;5.55;;;14.50;99.90;;;;;;4954288;28;206171;-73
2023/06/28 02:33:08;;;;;;;15.07;5.72;;;14.50;99.90;;;;;;5010718;28;20083;-72
2023/06/28 02:35:34;;;;;;;12.75;5.50;;;14.50;99.90;;;;;;4964444;28;231016;-72
2023/06/28 02:38:00;;;;;;;14.77;5.30;;;14.50;99.90;;;;;;4991907;28;20046;-71
2023/06/28 02:40:26;;;;;;;14.20;5.40;;;14.50;99.90;;;;;;4965852;28;208311;-71
2023/06/28 02:42:52;;;;;;;12.77;5.25;;;14.50;99.90;;;;;;4990716;28;20101;-71
2023/06/28 02:45:21;;;;;;;14.02;6.03;;;14.50;99.90;;;;;;4946571;28;207883;-71
2023/06/28 02:47:47;;;;;;;14.02;5.07;;;14.50;99.90;;;;;;4986594;28;20046;-72
2023/06/28 02:50:13;;;;;;;16.17;5.93;;;14.60;99.90;;;;;;4937333;28;239168;-71
2023/06/28 02:52:39;;;;;;;14.27;5.55;;;14.60;99.90;;;;;;5010739;28;20416;-71
2023/06/28 02:55:07;;;;;;;16.27;5.57;;;14.50;99.90;;;;;;4939398;28;209118;-73
2023/06/28 02:57:33;;;;;;;16.63;5.63;;;14.60;99.90;;;;;;5011433;28;20061;-71
2023/06/28 03:00:00;;;;;;;14.65;4.93;;;14.60;99.90;;;;;;4959570;28;209293;-72
2023/06/28 03:02:26;;;;;;;16.73;5.75;;;14.60;99.90;;;;;;5005225;28;20053;-72
2023/06/28 03:04:52;;;;;;;15.48;5.50;;;14.60;99.90;;;;;;4946787;28;207679;-71
2023/06/28 03:07:18;;;;;;;16.80;5.50;;;14.50;99.90;;;;;;4999020;28;20061;-71
2023/06/28 03:09:45;;;;;;;17.42;5.22;;;14.60;99.90;;;;;;4945267;28;277504;-71
2023/06/28 03:12:13;;;;;;;13.45;4.53;;;14.60;99.90;;;;;;4991961;28;20050;-70
2023/06/28 03:14:40;;;;;;;13.38;4.97;;;14.60;99.90;;;;;;4932047;28;217883;-73
2023/06/28 03:17:06;;;;;;;14.85;5.20;;;14.60;99.90;;;;;;4995749;28;20050;-71
2023/06/28 03:19:34;;;;;;;14.65;5.20;;;14.70;99.90;;;;;;4940103;28;212250;-71
2023/06/28 03:22:00;;;;;;;14.00;5.15;;;14.70;99.90;;;;;;5003912;28;20034;-72
2023/06/28 03:24:26;;;;;;;12.50;4.80;;;14.70;99.90;;;;;;4934005;28;208103;-71
2023/06/28 03:26:52;;;;;;;12.98;4.95;;;14.70;99.90;;;;;;4993080;28;20205;-72
2023/06/28 03:29:21;;;;;;;12.23;4.55;;;14.70;99.90;;;;;;4945289;28;213712;-71
2023/06/28 03:31:47;;;;;;;13.40;4.60;;;14.70;99.90;;;;;;5004504;28;20085;-72
2023/06/28 03:34:14;;;;;;;15.77;4.80;;;14.70;99.90;;;;;;4928308;28;236210;-72
2023/06/28 03:36:40;;;;;;;13.00;4.75;;;14.70;99.90;;;;;;4970281;28;20054;-71
2023/06/28 03:39:06;;;;;;;13.38;4.93;;;14.70;99.90;;;;;;4926421;28;212258;-72
2023/06/28 03:41:32;;;;;;;12.95;4.57;;;14.70;99.90;;;;;;4984862;28;20047;-71
2023/06/28 03:43:59;;;;;;;13.90;5.03;;;14.70;99.90;;;;;;4935568;28;206866;-72
2023/06/28 03:46:25;;;;;;;15.32;5.05;;;14.60;99.90;;;;;;4999529;28;20050;-71
2023/06/28 03:48:51;;;;;;;14.30;4.70;;;14.60;99.90;;;;;;4936418;28;209255;-71
2023/06/28 03:51:17;;;;;;;15.20;4.68;;;14.60;99.90;;;;;;5000564;28;20051;-70
2023/06/28 03:53:43;;;;;;;14.02;5.25;;;14.60;99.90;;;;;;4947622;28;217278;-67
2023/06/28 03:56:09;;;;;;;16.23;4.70;;;14.60;99.90;;;;;;4999691;28;160239;-71
2023/06/28 03:58:38;;;;;;;13.18;4.90;;;14.60;99.90;;;;;;4989042;28;20057;-70
2023/06/28 04:01:04;;;;;;;18.38;4.55;;;14.60;99.90;;;;;;4922598;28;188552;-71
2023/06/28 04:03:30;;;;;;;12.95;4.65;;;14.60;99.90;;;;;;4989692;28;20061;-71
2023/06/28 04:05:56;;;;;;;11.38;4.35;;;14.60;99.90;;;;;;4946930;28;209878;-72
2023/06/28 04:08:26;;;;;;;15.15;4.30;;;14.50;99.90;;;;;;4987136;28;20069;-71
2023/06/28 04:10:55;;;;;;;12.52;4.30;;;14.60;99.90;;;;;;4939514;28;224822;-71
2023/06/28 04:13:21;;;;;;;14.23;4.13;;;14.60;99.90;;;;;;4986155;28;20049;-71
2023/06/28 04:15:47;;;;;;;11.93;4.63;;;14.60;99.90;;;;;;4932577;28;207531;-72
2023/06/28 04:18:13;;;;;;;13.23;4.47;;;14.60;99.90;;;;;;4982436;28;20054;-73
2023/06/28 04:20:40;;;;;;;14.48;4.60;;;14.60;99.90;;;;;;4962812;28;217476;-70
2023/06/28 04:23:06;;;;;;;11.23;4.30;;;14.60;99.90;;;;;;5001250;28;20069;-69
2023/06/28 04:25:34;;;;;;;12.23;4.40;;;14.50;99.90;;;;;;4943567;28;224467;-69
2023/06/28 04:28:00;;;;;;;11.73;4.10;;;14.50;99.90;;;;;;4976383;28;20042;-70
2023/06/28 04:30:26;;;;;;;12.00;3.92;;;14.40;99.90;;;;;;4889347;28;1482786;-70
2023/06/28 04:32:52;;;;;;;10.25;4.18;;;14.50;99.90;;;;;;4979706;28;20053;-69
2023/06/28 04:35:21;;;;;;;10.65;3.47;;;14.50;99.90;;;;;;4922874;28;214147;-69
2023/06/28 04:37:47;;;;;;;12.30;3.72;;;14.50;99.90;;;;;;4978148;28;20061;-68
2023/06/28 04:40:16;;;;;;;12.45;3.88;;;14.50;99.90;;;;;;4955773;28;210318;-70
2023/06/28 04:42:43;;;;;;;10.32;3.65;;;14.60;99.90;;;;;;4992493;28;20069;-71
2023/06/28 04:45:11;;;;;;;13.68;4.45;;;14.60;99.90;;;;;;4922253;28;210262;-71
2023/06/28 04:47:38;;;;;;;11.98;4.03;;;14.60;99.90;;;;;;4981187;28;20058;-71
2023/06/28 04:50:05;;;;;;;10.65;3.95;;;14.70;99.90;;;;;;4928958;28;210355;-72
2023/06/28 04:52:31;;;;;;;9.98;3.90;;;14.70;99.90;;;;;;4984389;28;21802;-70
2023/06/28 04:54:57;;;;;;;10.60;3.95;;;14.80;99.90;;;;;;4906996;28;212952;-71
2023/06/28 04:57:24;;;;;;;14.20;4.90;;;14.80;99.90;;;;;;4982176;28;20065;-70
2023/06/28 04:59:50;;;;;;;13.50;4.38;;;14.80;99.90;;;;;;4934396;28;208277;-71
2023/06/28 05:02:17;;;;;;;13.95;4.30;;;14.90;99.90;;;;;;4988063;28;20535;-70
2023/06/28 05:04:43;;;;;;;17.02;4.95;;;14.80;99.90;;;;;;4938444;28;206733;-70
2023/06/28 05:07:09;;;;;;;12.77;4.70;;;14.80;99.90;;;;;;4995902;28;20057;-71
2023/06/28 05:09:38;;;;;;;15.27;5.30;;;14.80;99.90;;;;;;4926968;28;208914;-71
2023/06/28 05:12:05;;;;;;;12.93;4.45;;;14.90;99.90;;;;;;4982664;28;20038;-72
2023/06/28 05:14:31;;;;;;;13.07;4.82;;;14.90;99.90;;;;;;4931565;28;211608;-72
2023/06/28 05:16:57;;;;;;;14.85;5.20;;;14.90;99.90;;;;;;4982426;28;20054;-72
2023/06/28 05:19:24;;;;;;;11.25;5.15;;;14.90;99.90;;;;;;4940298;28;215451;-71
2023/06/28 05:21:51;;;;;;;12.23;4.60;;;15.00;99.90;;;;;;4983011;28;20058;-71
2023/06/28 05:24:19;;;;;;;11.30;4.70;;;15.00;99.90;;;;;;4932900;28;229722;-71
2023/06/28 05:26:48;;;;;;;14.10;4.55;;;15.10;99.90;;;;;;4992758;28;20861;-71
2023/06/28 05:29:14;;;;;;;13.45;4.47;;;15.10;99.90;;;;;;4939209;28;277444;-71
2023/06/28 05:31:42;;;;;;;13.45;4.63;;;15.10;99.90;;;;;;5018802;28;20049;-70
2023/06/28 05:34:08;;;;;;;12.25;4.88;;;15.10;99.90;;;;;;4960164;28;207283;-70
2023/06/28 05:36:34;;;;;;;12.25;4.30;;;15.20;99.90;;;;;;5011469;28;20054;-71
2023/06/28 05:39:00;;;;;;;13.55;4.57;;;15.20;99.90;;;;;;4934529;28;214169;-69
2023/06/28 05:41:26;;;;;;;11.55;4.70;;;15.20;99.90;;;;;;5012196;28;20062;-71
2023/06/28 05:43:52;;;;;;;11.27;4.43;;;15.30;99.90;;;;;;4932785;28;211079;-71
2023/06/28 05:46:18;;;;;;;10.48;4.68;;;15.30;99.90;;;;;;4998427;28;20918;-69
2023/06/28 05:48:46;;;;;;;13.35;4.80;;;15.30;99.90;;;;;;4941429;28;225739;-69
2023/06/28 05:51:14;;;;;;;11.55;4.78;;;15.30;99.90;;;;;;4979790;28;20042;-71
2023/06/28 05:53:41;;;;;;;12.88;5.03;;;15.40;99.90;;;;;;4969444;28;216219;-68
2023/06/28 05:56:08;;;;;;;12.73;4.90;;;15.40;99.90;;;;;;4972401;28;214659;-71
2023/06/28 05:58:34;;;;;;;12.98;5.35;;;15.50;99.90;;;;;;4987132;28;20058;-70
2023/06/28 06:01:00;;;;;;;13.35;4.60;;;15.60;99.90;;;;;;4964984;28;217830;-71
2023/06/28 06:03:26;;;;;;;13.80;5.70;;;15.70;99.90;;;;;;4989382;28;20061;-71
2023/06/28 06:05:53;;;;;;;14.20;6.05;;;15.80;99.90;;;;;;4932807;28;207108;-72
2023/06/28 06:08:19;;;;;;;13.07;5.72;;;15.80;99.90;;;;;;4988501;28;20420;-70
2023/06/28 06:10:45;;;;;;;13.20;5.57;;;15.90;99.90;;;;;;4937470;28;212776;-71
2023/06/28 06:13:12;;;;;;;12.57;5.40;;;16.00;99.90;;;;;;4988172;28;20065;-69
2023/06/28 06:15:38;;;;;;;13.10;6.13;;;16.00;99.90;;;;;;4961266;28;208607;-68
2023/06/28 06:18:04;;;;;;;12.52;5.63;;;16.10;99.90;;;;;;4987832;28;20055;-68
2023/06/28 06:20:31;;;;;;;15.02;5.95;;;16.20;99.90;;;;;;4921383;28;199215;-69
2023/06/28 06:22:58;;;;;;;16.20;6.20;;;16.20;99.90;;;;;;4982644;28;20428;-66
2023/06/28 06:25:24;;;;;;;14.38;6.13;;;16.20;99.90;;;;;;4942852;28;217901;-67
2023/06/28 06:27:50;;;;;;;17.00;6.65;;;16.20;99.90;;;;;;4993464;28;20065;-67
2023/06/28 06:30:16;;;;;;;14.82;6.60;;;16.20;99.90;;;;;;4926895;28;207567;-67
2023/06/28 06:32:42;;;;;;;14.73;6.90;;;16.20;99.90;;;;;;4990078;28;20054;-68
2023/06/28 06:35:08;;;;;;;15.60;6.40;;;16.20;99.90;;;;;;4952018;28;250832;-68
2023/06/28 06:37:35;;;;;;;15.13;6.40;;;16.20;99.90;;;;;;4999657;28;20061;-68
2023/06/28 06:40:01;;;;;;;14.45;6.45;;;16.20;99.90;;;;;;4936387;28;245742;-67
2023/06/28 06:42:27;;;;;;;15.70;6.20;;;16.20;99.90;;;;;;4994917;28;20081;-67
2023/06/28 06:44:53;;;;;;;16.75;6.05;;;16.30;99.90;;;;;;4952159;28;240612;-68
2023/06/28 06:47:19;;;;;;;13.63;5.93;;;16.20;99.90;;;;;;4998515;28;20061;-68
2023/06/28 06:49:45;;;;;;;14.52;5.60;;;16.20;99.90;;;;;;4945477;28;216449;-69
2023/06/28 06:52:11;;;;;;;17.23;5.72;;;16.10;99.90;;;;;;5002113;28;20495;-69
2023/06/28 06:54:37;;;;;;;14.20;5.95;;;16.20;99.90;;;;;;4920068;28;211295;-68
2023/06/28 06:57:05;;;;;;;16.52;5.88;;;16.10;99.90;;;;;;4987798;28;20435;-68
2023/06/28 06:59:32;;;;;;;14.43;5.82;;;16.10;99.90;;;;;;4946085;28;208432;-68
2023/06/28 07:01:58;;;;;;;16.23;6.10;;;16.10;99.90;;;;;;5015832;28;20085;-68
2023/06/28 07:04:24;;;;;;;15.18;5.85;;;16.00;99.90;;;;;;4934376;28;211974;-68
2023/06/28 07:06:50;;;;;;;13.15;5.97;;;16.00;99.90;;;;;;4997389;28;20046;-67
2023/06/28 07:09:20;;;;;;;14.40;6.13;;;16.00;99.90;;;;;;4957252;28;78894;-67
2023/06/28 07:11:46;;;;;;;13.57;5.53;;;16.00;99.90;;;;;;4997764;28;20050;-68
2023/06/28 07:14:13;;;;;;;13.60;5.88;;;16.00;99.90;;;;;;4944791;28;204873;-68
2023/06/28 07:16:45;;;;;;;14.25;6.18;;;16.00;99.90;;;;;;5010879;28;20042;-69
2023/06/28 07:19:14;;;;;;;16.83;6.35;;;16.10;99.90;;;;;;4945561;28;117579;-68
2023/06/28 07:21:40;;;;;;;14.73;5.93;;;16.10;99.90;;;;;;4994496;28;20049;-69
2023/06/28 07:24:07;;;;;;;15.15;5.85;;;16.20;99.90;;;;;;4947448;28;207970;-69
2023/06/28 07:26:36;;;;;;;17.05;6.25;;;16.20;99.90;;;;;;5022151;28;20510;-69
2023/06/28 07:29:02;;;;;;;16.05;6.13;;;16.30;99.90;;;;;;4967713;28;195041;-70
2023/06/28 07:31:28;;;;;;;15.90;6.18;;;16.40;99.90;;;;;;5034823;28;20499;-69
2023/06/28 07:33:55;;;;;;;16.88;6.43;;;16.40;99.90;;;;;;4954701;28;207372;-70
2023/06/28 07:36:21;;;;;;;15.88;6.25;;;16.30;99.90;;;;;;4997977;28;20404;-70
2023/06/28 07:38:49;;;;;;;15.40;6.03;;;16.30;99.90;;;;;;4939777;28;207846;-69
2023/06/28 07:41:16;;;;;;;16.98;6.35;;;16.20;99.90;;;;;;4979570;28;20058;-69
2023/06/28 07:43:42;;;;;;;18.05;6.70;;;16.20;99.90;;;;;;4957995;28;207877;-70
2023/06/28 07:46:08;;;;;;;15.25;6.53;;;16.20;99.90;;;;;;4985107;28;20050;-69
2023/06/28 07:48:34;;;;;;;16.60;6.22;;;16.20;99.90;;;;;;4990232;28;20065;-69
2023/06/28 07:51:00;;;;;;;15.75;5.78;;;16.20;99.90;;;;;;4953180;28;207160;-70
2023/06/28 07:53:26;;;;;;;14.13;6.53;;;16.40;99.90;;;;;;4992068;28;20054;-68
2023/06/28 07:55:55;;;;;;;14.85;6.43;;;16.40;99.90;;;;;;4923151;28;220515;-69
2023/06/28 07:58:21;;;;;;;16.42;6.78;;;16.40;99.90;;;;;;4985915;28;20389;-68
2023/06/28 08:00:47;;;;;;;16.20;6.35;;;16.50;99.90;;;;;;4964347;28;187914;-69
2023/06/28 08:03:14;;;;;;;16.17;6.53;;;16.30;99.90;;;;;;4988890;28;20050;-70
2023/06/28 08:05:40;;;;;;;14.48;6.45;;;16.30;99.90;;;;;;4969531;28;206618;-67
2023/06/28 08:08:07;;;;;;;13.85;6.20;;;16.40;99.90;;;;;;4989131;28;20083;-68
2023/06/28 08:10:33;;;;;;;16.75;6.63;;;16.40;99.90;;;;;;4943159;28;210631;-68
2023/06/28 08:12:59;;;;;;;16.60;6.80;;;16.30;99.90;;;;;;4989634;28;20050;-68
2023/06/28 08:15:25;;;;;;;13.20;6.78;;;16.30;99.90;;;;;;4954770;28;215695;-69
2023/06/28 08:17:51;;;;;;;16.13;6.75;;;16.40;99.90;;;;;;4994103;28;20586;-68
2023/06/28 08:20:17;;;;;;;15.50;7.10;;;16.40;99.90;;;;;;4940337;28;218949;-69
2023/06/28 08:22:44;;;;;;;14.35;6.72;;;16.40;99.90;;;;;;4991043;28;20047;-67
2023/06/28 08:25:10;;;;;;;16.17;6.65;;;16.40;99.90;;;;;;4952230;28;206676;-69
2023/06/28 08:27:36;;;;;;;15.55;7.15;;;16.50;99.90;;;;;;4995796;28;20076;-70
2023/06/28 08:30:03;;;;;;;16.52;7.35;;;16.50;99.90;;;;;;4941338;28;229331;-70
2023/06/28 08:32:29;;;;;;;15.20;6.88;;;16.50;99.90;;;;;;5006301;28;20054;-70
2023/06/28 08:34:55;;;;;;;15.63;7.80;;;16.50;99.90;;;;;;4950572;28;208196;-71
2023/06/28 08:37:22;;;;;;;15.38;7.20;;;16.60;99.90;;;;;;4988581;28;20061;-70
2023/06/28 08:39:48;;;;;;;16.80;7.70;;;16.60;99.90;;;;;;4942228;28;207044;-70
2023/06/28 08:42:16;;;;;;;14.98;7.30;;;16.70;99.90;;;;;;5001595;28;20159;-69
2023/06/28 08:44:45;;;;;;;14.50;7.32;;;16.70;99.90;;;;;;4949901;28;213394;-68
2023/06/28 08:47:12;;;;;;;13.45;7.13;;;16.70;99.90;;;;;;5005439;28;20057;-69
2023/06/28 08:49:40;;;;;;;14.15;7.47;;;16.80;99.90;;;;;;4952018;28;155607;-69
2023/06/28 08:52:08;;;;;;;15.05;7.60;;;16.80;99.90;;;;;;5008861;28;20069;-69
2023/06/28 08:54:35;;;;;;;14.27;7.85;;;16.90;99.90;;;;;;4929153;28;255883;-69
2023/06/28 08:57:03;;;;;;;17.38;7.65;;;17.00;99.90;;;;;;5001785;28;20500;-68
2023/06/28 08:59:30;;;;;;;14.93;7.78;;;17.00;99.90;;;;;;4948620;28;216354;-68
2023/06/28 09:01:58;;;;;;;14.23;7.82;;;17.10;99.90;;;;;;5011408;28;20054;-70
2023/06/28 09:04:29;;;;;;;17.67;8.77;;;17.10;99.90;;;;;;4939824;28;206888;-70
2023/06/28 09:06:56;;;;;;;15.50;8.27;;;17.30;99.90;;;;;;4986871;28;20062;-68
2023/06/28 09:09:23;;;;;;;15.15;8.00;;;17.20;99.90;;;;;;4939339;28;206365;-68
2023/06/28 09:11:50;;;;;;;16.50;8.45;;;17.30;99.90;;;;;;4999530;28;20042;-69
2023/06/28 09:14:16;;;;;;;16.13;8.40;;;17.30;99.90;;;;;;4950859;28;215319;-71
2023/06/28 09:16:42;;;;;;;17.17;9.27;;;17.30;99.90;;;;;;5002714;28;20054;-69
2023/06/28 09:19:08;;;;;;;18.23;9.90;;;17.30;99.90;;;;;;4937163;28;273105;-69
2023/06/28 09:21:35;;;;;;;17.60;9.57;;;17.40;99.90;;;;;;5007845;28;20050;-70
2023/06/28 09:24:01;;;;;;;15.00;9.25;;;17.30;99.90;;;;;;4946443;28;216146;-70
2023/06/28 09:26:32;;;;;;;18.33;10.05;;;17.30;99.90;;;;;;5037206;28;20062;-70
2023/06/28 09:29:10;;;;;;;16.90;9.55;;;17.20;99.90;;;;;;4956312;28;210669;-71
2023/06/28 09:31:40;;;;;;;18.25;9.70;;;17.20;99.90;;;;;;4988960;28;20065;-68
2023/06/28 09:34:07;;;;;;;17.27;10.02;;;17.20;99.90;;;;;;4940157;28;207568;-68
2023/06/28 09:36:37;;;;;;;18.95;10.02;;;17.30;99.90;;;;;;5003817;28;20062;-68
2023/06/28 09:39:04;;;;;;;19.35;10.02;;;17.30;99.90;;;;;;4932716;28;215567;-68
2023/06/28 09:41:42;;;;;;;18.55;10.70;;;17.20;99.90;;;;;;4997440;28;20059;-69
2023/06/28 09:44:10;;;;;;;18.33;11.05;;;17.30;99.90;;;;;;4946554;28;187059;-68
2023/06/28 09:46:47;;;;;;;20.35;10.57;;;17.30;99.90;;;;;;5002362;28;20065;-70
2023/06/28 09:49:23;;;;;;;19.75;11.27;;;17.40;99.90;;;;;;4938382;28;164283;-67
2023/06/28 09:52:04;;;;;;;19.00;11.15;;;17.30;99.90;;;;;;4988480;28;20077;-68
2023/06/28 09:54:44;;;;;;;22.85;10.77;;;17.20;99.90;;;;;;4924652;28;207065;-68
2023/06/28 09:57:11;;;;;;;21.23;10.95;;;17.20;99.90;;;;;;4999443;28;20046;-68
2023/06/28 09:59:39;;;;;;;21.88;11.75;;;17.20;99.90;;;;;;4942206;28;213126;-69
2023/06/28 10:02:07;;;;;;;22.63;11.00;;;17.20;99.90;;;;;;5006608;28;20054;-68
2023/06/28 10:04:35;;;;;;;19.50;10.88;;;17.20;99.90;;;;;;4949535;28;216289;-68
2023/06/28 10:07:03;;;;;;;24.67;11.25;;;17.20;99.90;;;;;;5008876;28;20046;-68
2023/06/28 10:09:36;;;;;;;21.25;10.90;;;17.30;99.90;;;;;;4916617;28;207335;-68
2023/06/28 10:12:11;;;;;;;21.73;11.80;;;17.30;99.90;;;;;;4977874;28;20046;-68
2023/06/28 10:14:44;;;;;;;20.33;10.95;;;17.30;99.90;;;;;;4951571;28;252098;-68
2023/06/28 10:17:11;;;;;;;20.60;10.93;;;17.30;99.90;;;;;;5011365;28;20057;-70
2023/06/28 10:19:40;;;;;;;17.63;10.45;;;17.40;99.90;;;;;;4947536;28;214151;-70
2023/06/28 10:22:07;;;;;;;22.85;11.48;;;17.40;99.90;;;;;;4994459;28;20034;-70
2023/06/28 10:24:36;;;;;;;19.88;11.30;;;17.40;99.90;;;;;;4937504;28;233855;-69
2023/06/28 10:27:03;;;;;;;22.00;11.80;;;17.50;99.90;;;;;;4995931;28;20066;-70
2023/06/28 10:29:30;;;;;;;18.17;10.85;;;17.60;99.90;;;;;;4948138;28;207775;-69
2023/06/28 10:31:56;;;;;;;20.02;11.40;;;17.50;99.90;;;;;;4999032;28;20101;-70
2023/06/28 10:34:22;;;;;;;18.85;11.25;;;17.50;99.90;;;;;;4949399;28;191816;-69
2023/06/28 10:36:49;;;;;;;19.52;11.27;;;17.70;99.90;;;;;;4982724;28;20065;-69
2023/06/28 10:39:16;;;;;;;20.33;11.77;;;17.60;99.90;;;;;;4937857;28;206918;-70
2023/06/28 10:41:43;;;;;;;19.08;11.45;;;17.70;99.90;;;;;;4991849;28;20077;-69
2023/06/28 10:44:09;;;;;;;21.35;11.63;;;17.80;99.90;;;;;;4925879;28;209145;-70
2023/06/28 10:46:40;;;;;;;20.77;11.30;;;17.90;99.90;;;;;;5018342;28;20062;-70
2023/06/28 10:49:06;;;;;;;18.42;11.40;;;17.90;99.90;;;;;;4954048;28;225750;-69
2023/06/28 10:51:35;;;;;;;16.27;10.93;;;17.90;99.90;;;;;;5020545;28;20057;-69
2023/06/28 10:54:19;;;;;;;18.90;10.88;;;18.00;99.90;;;;;;4960854;28;184439;-69
2023/06/28 10:56:50;;;;;;;20.13;11.43;;;18.10;99.90;;;;;;5022209;28;20050;-70
2023/06/28 10:59:18;;;;;;;18.50;10.63;;;18.10;99.90;;;;;;4954545;28;209671;-70
2023/06/28 11:01:53;;;;;;;17.92;10.82;;;18.10;99.90;;;;;;5001141;28;20057;-70
2023/06/28 11:04:23;;;;;;;20.20;10.93;;;18.10;99.90;;;;;;4934546;28;222596;-70
2023/06/28 11:07:16;;;;;;;16.77;10.45;;;18.10;99.90;;;;;;4998115;28;20054;-71
2023/06/28 11:10:11;;;;;;;17.40;10.23;;;18.10;99.90;;;;;;4946128;28;212081;-71
2023/06/28 11:12:38;;;;;;;17.38;10.00;;;18.10;99.90;;;;;;4988108;28;20065;-70
2023/06/28 11:15:11;;;;;;;14.77;9.57;;;18.20;99.90;;;;;;4964203;28;203945;-69
2023/06/28 11:17:37;;;;;;;16.98;9.88;;;18.10;99.90;;;;;;4997055;28;20059;-70
2023/06/28 11:20:09;;;;;;;16.95;10.48;;;18.10;99.90;;;;;;4944970;28;214679;-70
2023/06/28 11:22:50;;;;;;;16.90;10.30;;;18.20;99.90;;;;;;4989647;28;20054;-70
2023/06/28 11:25:16;;;;;;;17.45;10.82;;;18.20;99.90;;;;;;4943774;28;207393;-71
2023/06/28 11:27:42;;;;;;;15.25;10.93;;;18.20;99.90;;;;;;4991840;28;20062;-69
2023/06/28 11:30:09;;;;;;;14.38;9.75;;;18.20;99.90;;;;;;4944631;28;220950;-70
2023/06/28 11:32:36;;;;;;;16.33;9.95;;;18.30;99.90;;;;;;4990956;28;20179;-70
2023/06/28 11:35:06;;;;;;;16.10;10.18;;;18.50;99.90;;;;;;4940382;28;208468;-70
2023/06/28 11:37:32;;;;;;;16.30;10.75;;;18.60;99.90;;;;;;4984977;28;20059;-70
2023/06/28 11:39:59;;;;;;;16.23;10.27;;;18.60;99.90;;;;;;4945737;28;210208;-69
2023/06/28 11:42:25;;;;;;;16.48;10.43;;;18.50;99.90;;;;;;4993078;28;20054;-70
2023/06/28 11:44:53;;;;;;;15.85;11.10;;;18.50;99.90;;;;;;4936802;28;207793;-70
2023/06/28 11:47:23;;;;;;;18.05;11.00;;;18.40;99.90;;;;;;4986861;28;20136;-70
2023/06/28 11:49:49;;;;;;;17.73;11.20;;;18.60;99.90;;;;;;4954957;28;211775;-70
2023/06/28 11:52:16;;;;;;;15.50;10.27;;;18.60;99.90;;;;;;5007916;28;20070;-71
2023/06/28 11:54:43;;;;;;;16.27;10.98;;;18.60;99.90;;;;;;4924075;28;208885;-70
2023/06/28 11:57:10;;;;;;;16.98;12.43;;;18.60;99.90;;;;;;4992209;28;20066;-70
2023/06/28 11:59:39;;;;;;;15.68;11.35;;;18.50;99.90;;;;;;4942118;28;162678;-70
2023/06/28 12:02:07;;;;;;;18.85;12.02;;;18.50;99.90;;;;;;4990830;28;20536;-70
2023/06/28 12:04:34;;;;;;;19.98;13.00;;;18.60;99.90;;;;;;4957690;28;213882;-70
2023/06/28 12:07:04;;;;;;;19.50;13.07;;;18.60;99.90;;;;;;4997088;28;20510;-71
2023/06/28 12:09:35;;;;;;;20.40;13.75;;;18.70;99.90;;;;;;4939558;28;206249;-70
2023/06/28 12:12:07;;;;;;;;;;;18.70;99.90;;;;;;4999927;28;20534;-71
2023/06/28 12:14:44;;;;;;;21.00;14.10;;;18.60;99.90;;;;;;4938598;28;216457;-70
2023/06/28 12:17:10;;;;;;;18.63;13.77;;;18.50;99.90;;;;;;5004080;28;20439;-70
2023/06/28 12:19:39;;;;;;;19.00;13.15;;;18.50;99.90;;;;;;4966282;28;206637;-71
2023/06/28 12:22:07;;;;;;;19.30;13.38;;;18.50;99.90;;;;;;5007060;28;20054;-70
2023/06/28 12:24:35;;;;;;;19.17;14.20;;;18.70;99.90;;;;;;4940451;28;207862;-70
2023/06/28 12:27:10;;;;;;;22.77;15.02;;;18.70;99.90;;;;;;5008277;28;20060;-70
2023/06/28 12:29:37;;;;;;;20.48;14.23;;;18.70;99.90;;;;;;4949371;28;207151;-71
2023/06/28 12:32:04;;;;;;;20.17;14.68;;;18.60;99.90;;;;;;4999862;28;20064;-69